Time;durP1;ratioP1;P1;durP2;ratioP2;P2;SDS_P1;SDS_P2;PMS_P1;PMS_P2;Temp;Humidity;BMP_temperature;BMP_pressure;BME280_temperature;BME280_humidity;BME280_pressure;Samples;Min_cycle;Max_cycle;Signal;HPM_P1;HPM_P2
2021/03/13 00:01:21;;;;;;;22.07;15.77;;;;;;;1.30;83.04;99052.91;1833286;76;21498;-62
2021/03/13 00:03:49;;;;;;;21.13;16.67;;;;;;;1.30;83.06;99052.91;1832177;76;21545;-61
2021/03/13 00:06:17;;;;;;;23.40;17.23;;;;;;;1.32;83.04;99047.12;1768688;79;22250;-62
2021/03/13 00:08:44;;;;;;;22.07;15.03;;;;;;;1.32;83.00;99055.07;1772708;80;21119;-62
2021/03/13 00:11:12;;;;;;;20.83;14.90;;;;;;;1.35;82.94;99047.52;1794072;78;21111;-62
2021/03/13 00:13:39;;;;;;;22.53;14.73;;;;;;;1.37;82.93;99050.53;1746119;79;21133;-61
2021/03/13 00:16:07;;;;;;;19.30;13.37;;;;;;;1.38;82.88;99050.95;1771110;79;21091;-61
2021/03/13 00:18:35;;;;;;;19.43;13.77;;;;;;;1.41;82.88;99054.00;1774487;80;22542;-62
2021/03/13 00:21:05;;;;;;;20.13;14.67;;;;;;;1.41;82.89;99054.88;1794875;78;21665;-62
2021/03/13 00:23:33;;;;;;;20.87;15.10;;;;;;;1.42;82.89;99049.11;1772689;78;21684;-63
2021/03/13 00:26:00;;;;;;;19.33;15.33;;;;;;;1.43;82.90;99051.73;1768080;78;21186;-63
2021/03/13 00:28:27;;;;;;;22.50;15.20;;;;;;;1.44;82.85;99056.14;1763801;79;21185;-61
2021/03/13 00:30:55;;;;;;;24.03;15.13;;;;;;;1.44;82.78;99055.27;1767312;79;21388;-64
2021/03/13 00:33:25;;;;;;;21.17;14.30;;;;;;;1.44;82.77;99058.79;1765369;79;21170;-63
2021/03/13 00:35:53;;;;;;;24.23;15.03;;;;;;;1.45;82.73;99051.67;1775702;78;21202;-63
2021/03/13 00:38:21;;;;;;;19.67;14.13;;;;;;;1.46;82.74;99057.41;1784223;78;21206;-63
2021/03/13 00:40:49;;;;;;;21.17;14.23;;;;;;;1.46;82.74;99057.41;1794426;77;21178;-63
2021/03/13 00:43:17;;;;;;;16.80;13.03;;;;;;;1.46;82.77;99054.30;1761368;79;21212;-62
2021/03/13 00:45:45;;;;;;;21.23;15.27;;;;;;;1.47;82.78;99061.35;1778597;79;21570;-61
2021/03/13 00:48:12;;;;;;;21.23;16.57;;;;;;;1.47;82.78;99055.17;1776466;78;21242;-61
2021/03/13 00:50:41;;;;;;;23.63;17.27;;;;;;;1.47;82.81;99052.07;1769649;80;21174;-61
2021/03/13 00:53:09;;;;;;;25.10;17.73;;;;;;;1.47;82.80;99053.39;1797274;77;21630;-62
2021/03/13 00:55:36;;;;;;;22.20;15.50;;;;;;;1.45;82.75;99051.23;1796945;77;22148;-61
2021/03/13 00:58:05;;;;;;;20.00;14.90;;;;;;;1.45;82.71;99049.90;1794876;78;21478;-62
2021/03/13 01:00:35;;;;;;;20.03;13.90;;;;;;;1.47;82.71;99054.72;1782031;78;21115;-62
2021/03/13 01:03:03;;;;;;;20.37;14.10;;;;;;;1.50;82.74;99056.44;1784544;78;21095;-62
2021/03/13 01:05:32;;;;;;;17.03;13.27;;;;;;;1.51;82.76;99064.37;1799825;77;21096;-61
2021/03/13 01:07:59;;;;;;;18.90;14.40;;;;;;;1.53;82.77;99065.18;1762650;79;21204;-62
2021/03/13 01:10:34;;;;;;;20.10;14.40;;;;;;;1.53;82.76;99067.83;1760953;79;21573;-62
2021/03/13 01:13:03;;;;;;;20.73;14.57;;;;;;;1.56;82.77;99066.03;1795865;77;21187;-62
2021/03/13 01:15:30;;;;;;;19.73;15.10;;;;;;;1.56;82.73;99073.53;1774012;78;21162;-63
2021/03/13 01:18:01;;;;;;;21.30;15.30;;;;;;;1.57;82.73;99079.72;1766530;79;21606;-64
2021/03/13 01:20:29;;;;;;;21.93;15.80;;;;;;;1.57;82.70;99086.34;1753558;79;21790;-64
2021/03/13 01:22:56;;;;;;;19.50;14.47;;;;;;;1.57;82.70;99083.69;1795983;77;21998;-64
2021/03/13 01:25:24;;;;;;;20.30;14.23;;;;;;;1.58;82.67;99084.11;1772568;79;21523;-62
2021/03/13 01:27:51;;;;;;;16.73;12.67;;;;;;;1.59;82.69;99088.52;1781049;78;21189;-63
2021/03/13 01:30:21;;;;;;;19.73;12.33;;;;;;;1.59;82.69;99089.39;1780581;78;21217;-63
2021/03/13 01:32:51;;;;;;;16.13;13.30;;;;;;;1.59;82.72;99092.05;1787100;78;21600;-63
2021/03/13 01:35:19;;;;;;;20.50;13.63;;;;;;;1.59;82.75;99098.67;1791312;77;21209;-62
2021/03/13 01:37:46;;;;;;;22.67;15.13;;;;;;;1.60;82.82;99107.51;1765270;79;21764;-62
2021/03/13 01:40:17;;;;;;;20.73;14.77;;;;;;;1.59;82.84;99111.94;1764860;79;21286;-63
2021/03/13 01:42:45;;;;;;;19.80;14.20;;;;;;;1.60;82.84;99111.48;1775263;78;21091;-63
2021/03/13 01:45:15;;;;;;;17.80;14.03;;;;;;;1.57;82.80;99118.17;1738757;79;22776;-62
2021/03/13 01:47:43;;;;;;;16.73;13.13;;;;;;;1.57;82.76;99112.42;1789685;78;21494;-62
2021/03/13 01:50:13;;;;;;;19.87;12.67;;;;;;;1.59;82.80;99123.00;1770783;78;21222;-63
2021/03/13 01:52:42;;;;;;;20.90;12.57;;;;;;;1.59;82.83;99115.92;1764400;78;21091;-62
2021/03/13 01:55:11;;;;;;;17.27;12.40;;;;;;;1.62;82.93;99121.59;1766505;78;21182;-63
2021/03/13 01:57:38;;;;;;;19.20;12.03;;;;;;;1.64;82.96;99118.45;1732688;79;21261;-62
2021/03/13 02:00:13;;;;;;;19.13;13.40;;;;;;;1.65;83.00;99115.77;1768158;79;21246;-62
2021/03/13 02:02:45;;;;;;;18.13;13.87;;;;;;;1.66;83.00;99121.50;1762624;78;22621;-62
2021/03/13 02:05:26;;;;;;;20.27;14.73;;;;;;;1.67;83.00;99125.03;1766469;79;21513;-63
2021/03/13 02:08:37;;;;;;;20.77;15.47;;;;;;;1.66;82.95;99130.78;1766290;79;21635;-62
2021/03/13 02:11:26;;;;;;;18.80;13.97;;;;;;;1.65;83.01;99133.02;1767060;78;21209;-63
2021/03/13 02:14:16;;;;;;;20.57;13.90;;;;;;;1.66;83.01;99136.09;1791207;78;21108;-61
2021/03/13 02:17:06;;;;;;;19.90;12.37;;;;;;;1.66;83.07;99146.70;1750567;79;22284;-62
2021/03/13 02:20:15;;;;;;;19.87;12.80;;;;;;;1.66;83.12;99148.48;1773065;78;21629;-62
2021/03/13 02:22:44;;;;;;;17.20;12.00;;;;;;;1.68;83.33;99151.53;1771153;79;21170;-63
2021/03/13 02:25:44;;;;;;;17.33;11.73;;;;;;;1.73;83.34;99148.76;1776140;78;21655;-62
2021/03/13 02:28:42;;;;;;;21.93;13.47;;;;;;;1.74;83.27;99156.69;1770014;78;21218;-63
2021/03/13 02:31:13;;;;;;;18.90;13.17;;;;;;;1.75;83.30;99145.63;1792154;78;21173;-63
2021/03/13 02:33:41;;;;;;;26.10;14.83;;;;;;;1.74;83.28;99149.18;1759268;78;21158;-63
2021/03/13 02:36:16;;;;;;;19.87;14.20;;;;;;;1.73;83.28;99152.28;1764897;78;21191;-62
2021/03/13 02:38:52;;;;;;;19.80;13.87;;;;;;;1.72;83.28;99152.31;1791323;78;22374;-62
2021/03/13 02:41:24;;;;;;;18.00;12.23;;;;;;;1.72;83.25;99154.97;1780489;78;21234;-63
2021/03/13 02:43:56;;;;;;;19.57;13.70;;;;;;;1.73;83.27;99154.94;1740636;79;21127;-62
2021/03/13 02:46:23;;;;;;;22.23;13.47;;;;;;;1.74;83.35;99153.16;1770541;78;21531;-62
2021/03/13 02:48:51;;;;;;;16.50;11.93;;;;;;;1.75;83.40;99156.23;1769006;79;21120;-62
2021/03/13 02:51:20;;;;;;;19.47;12.43;;;;;;;1.77;83.42;99151.78;1739594;79;21274;-62
2021/03/13 02:53:48;;;;;;;19.00;13.50;;;;;;;1.79;83.47;99150.81;1770861;79;21111;-62
2021/03/13 02:56:15;;;;;;;18.60;13.63;;;;;;;1.81;83.44;99150.78;1712860;79;21646;-61
2021/03/13 02:58:44;;;;;;;21.27;14.60;;;;;;;1.82;83.38;99153.86;1770354;78;21103;-62
2021/03/13 03:01:11;;;;;;;22.60;15.43;;;;;;;1.82;83.41;99152.09;1769634;78;21124;-61
2021/03/13 03:03:39;;;;;;;19.97;14.63;;;;;;;1.81;83.39;99146.35;1746025;78;21759;-61
2021/03/13 03:06:09;;;;;;;18.27;14.47;;;;;;;1.80;83.35;99147.70;1721056;79;21147;-62
2021/03/13 03:08:40;;;;;;;22.97;14.47;;;;;;;1.80;83.31;99150.36;1768110;79;21468;-62
2021/03/13 03:11:08;;;;;;;18.13;12.90;;;;;;;1.81;83.27;99146.80;1765890;78;21087;-62
2021/03/13 03:13:37;;;;;;;15.53;11.23;;;;;;;1.82;83.29;99145.90;1763162;79;21122;-62
2021/03/13 03:16:05;;;;;;;17.37;11.47;;;;;;;1.83;83.31;99142.34;1738764;79;21766;-62
2021/03/13 03:18:33;;;;;;;15.03;11.20;;;;;;;1.84;83.34;99151.60;1773848;78;21132;-62
2021/03/13 03:21:02;;;;;;;16.03;12.43;;;;;;;1.87;83.34;99153.32;1786627;78;21614;-62
2021/03/13 03:23:30;;;;;;;18.23;13.03;;;;;;;1.87;83.41;99155.49;1770949;78;20989;-61
2021/03/13 03:25:57;;;;;;;18.90;13.70;;;;;;;1.88;83.42;99169.64;1792565;78;21460;-62
2021/03/13 03:28:25;;;;;;;20.97;15.37;;;;;;;1.87;83.41;99166.11;1764883;78;21862;-62
2021/03/13 03:30:57;;;;;;;22.10;14.43;;;;;;;1.86;83.44;99168.38;1766605;78;21151;-62
2021/03/13 03:33:25;;;;;;;20.53;13.77;;;;;;;1.86;83.36;99175.01;1767482;78;21678;-63
2021/03/13 03:35:54;;;;;;;17.07;11.03;;;;;;;1.85;83.36;99175.91;1767570;78;21163;-61
2021/03/13 03:38:22;;;;;;;15.17;11.53;;;;;;;1.87;83.36;99189.16;1741882;78;21234;-62
2021/03/13 03:40:49;;;;;;;17.87;12.07;;;;;;;1.87;83.39;99187.83;1791600;78;21659;-62
2021/03/13 03:43:35;;;;;;;18.47;11.43;;;;;;;1.88;83.44;99189.55;1775491;78;21170;-62
2021/03/13 03:46:04;;;;;;;14.13;9.30;;;;;;;1.88;83.53;99189.55;1765427;79;21457;-61
2021/03/13 03:48:34;;;;;;;16.50;10.93;;;;;;;1.90;83.62;99182.42;1772204;78;21744;-62
2021/03/13 03:51:09;;;;;;;18.23;12.63;;;;;;;1.89;83.69;99185.98;1765765;78;21171;-62
2021/03/13 03:53:42;;;;;;;21.93;13.53;;;;;;;1.90;83.72;99182.42;1796635;78;21638;-63
2021/03/13 03:56:10;;;;;;;21.47;14.40;;;;;;;1.90;83.65;99174.47;1778977;78;21192;-62
2021/03/13 03:58:43;;;;;;;18.43;13.10;;;;;;;1.90;83.68;99181.97;1759111;79;21187;-61
2021/03/13 04:01:11;;;;;;;21.20;13.43;;;;;;;1.91;83.63;99189.48;1772582;78;21174;-62
2021/03/13 04:03:45;;;;;;;16.63;11.80;;;;;;;1.91;83.59;99197.45;1772340;78;21207;-62
2021/03/13 04:06:14;;;;;;;18.60;11.93;;;;;;;1.90;83.68;99198.35;1767263;78;22055;-61
2021/03/13 04:08:43;;;;;;;16.07;10.77;;;;;;;1.88;83.77;99206.80;1770001;78;21171;-61
2021/03/13 04:11:17;;;;;;;14.47;11.23;;;;;;;1.88;83.78;99205.02;1774720;78;21183;-61
2021/03/13 04:13:44;;;;;;;16.02;12.00;;;;;;;1.90;83.87;99206.31;1770976;78;21574;-61
2021/03/13 04:16:12;;;;;;;17.33;12.30;;;;;;;1.92;83.88;99206.28;1740674;78;21207;-62
2021/03/13 04:18:40;;;;;;;18.37;13.77;;;;;;;1.93;83.91;99215.55;1768238;78;22120;-61
2021/03/13 04:21:07;;;;;;;23.90;15.40;;;;;;;1.93;83.90;99208.03;1792596;78;21163;-61
2021/03/13 04:23:36;;;;;;;19.53;14.30;;;;;;;1.92;83.82;99207.16;1775204;78;21214;-61
2021/03/13 04:26:03;;;;;;;16.33;11.43;;;;;;;1.88;83.79;99203.69;1770644;78;21224;-61
2021/03/13 04:28:30;;;;;;;18.53;12.30;;;;;;;1.86;83.81;99207.30;1770484;78;21151;-61
2021/03/13 04:30:57;;;;;;;16.97;10.97;;;;;;;1.85;83.83;99207.76;1746866;78;21227;-61
2021/03/13 04:33:25;;;;;;;14.93;10.47;;;;;;;1.86;83.89;99209.51;1793535;78;21228;-60
2021/03/13 04:35:52;;;;;;;17.67;11.20;;;;;;;1.87;83.98;99209.05;1767541;78;21476;-61
2021/03/13 04:38:21;;;;;;;15.47;10.77;;;;;;;1.89;84.00;99201.45;1755126;79;21992;-60
2021/03/13 04:40:50;;;;;;;16.53;11.30;;;;;;;1.94;84.05;99209.33;1757533;79;21174;-60
2021/03/13 04:43:19;;;;;;;18.60;12.37;;;;;;;1.97;84.03;99214.55;1767916;79;21249;-58
2021/03/13 04:45:46;;;;;;;17.40;12.10;;;;;;;1.98;84.02;99208.34;1789165;78;21190;-59
2021/03/13 04:48:14;;;;;;;21.93;13.03;;;;;;;2.00;83.96;99217.61;1787960;78;21614;-59
2021/03/13 04:50:42;;;;;;;21.30;15.17;;;;;;;1.97;83.93;99213.68;1763494;79;21183;-59
2021/03/13 04:53:09;;;;;;;17.60;12.83;;;;;;;1.97;83.93;99220.31;1771989;78;21234;-59
2021/03/13 04:55:36;;;;;;;18.93;12.90;;;;;;;1.96;83.94;99219.92;1770724;78;21558;-59
2021/03/13 04:58:04;;;;;;;17.77;12.60;;;;;;;1.96;83.96;99219.92;1790724;78;21187;-59
2021/03/13 05:00:31;;;;;;;18.00;11.43;;;;;;;1.97;84.01;99224.30;1779843;78;21566;-59
2021/03/13 05:02:59;;;;;;;19.93;12.00;;;;;;;1.97;84.11;99227.83;1767531;78;21214;-58
2021/03/13 05:05:30;;;;;;;17.03;11.43;;;;;;;2.00;84.17;99230.42;1767623;78;21095;-59
2021/03/13 05:08:00;;;;;;;17.33;12.60;;;;;;;2.04;84.19;99237.39;1764745;79;21664;-59
2021/03/13 05:10:28;;;;;;;18.70;13.90;;;;;;;2.08;84.18;99243.52;1764474;79;21162;-61
2021/03/13 05:12:56;;;;;;;21.20;12.90;;;;;;;2.09;84.16;99250.59;1790868;78;21156;-58
2021/03/13 05:15:23;;;;;;;21.67;14.40;;;;;;;2.11;84.16;99249.66;1768869;78;21806;-58
2021/03/13 05:17:51;;;;;;;20.13;13.77;;;;;;;2.11;84.13;99250.11;1774170;78;21162;-61
2021/03/13 05:20:18;;;;;;;21.70;12.60;;;;;;;2.12;84.04;99255.39;1770253;78;22230;-61
2021/03/13 05:22:49;;;;;;;18.63;12.87;;;;;;;2.14;83.99;99258.86;1770485;78;21206;-59
2021/03/13 05:25:17;;;;;;;21.80;13.50;;;;;;;2.16;83.97;99254.39;1772853;79;21664;-62
2021/03/13 05:27:44;;;;;;;22.37;13.03;;;;;;;2.18;84.03;99257.02;1770562;78;21179;-62
2021/03/13 05:30:13;;;;;;;16.73;12.20;;;;;;;2.22;84.06;99258.23;1791796;78;21162;-59
2021/03/13 05:32:40;;;;;;;18.97;12.20;;;;;;;2.24;84.04;99261.73;1759433;79;21537;-62
2021/03/13 05:35:10;;;;;;;19.50;13.20;;;;;;;2.25;84.00;99262.16;1772139;78;21613;-62
2021/03/13 05:37:38;;;;;;;24.73;15.03;;;;;;;2.27;83.97;99261.67;1752727;78;21157;-61
2021/03/13 05:40:07;;;;;;;18.10;12.47;;;;;;;2.26;83.91;99267.89;1742992;81;21210;-60
2021/03/13 05:42:36;;;;;;;19.87;13.10;;;;;;;2.26;83.88;99273.66;1741321;80;21114;-62
2021/03/13 05:45:06;;;;;;;20.57;12.43;;;;;;;2.26;83.82;99274.98;1740877;80;21498;-62
2021/03/13 05:47:35;;;;;;;13.43;10.47;;;;;;;2.27;83.80;99284.70;1741161;81;21115;-62
2021/03/13 05:50:13;;;;;;;14.10;10.73;;;;;;;2.31;83.83;99280.17;1717387;81;21110;-62
2021/03/13 05:52:54;;;;;;;15.70;11.80;;;;;;;2.39;83.85;99284.41;1870966;75;26697;-63
2021/03/13 05:55:22;;;;;;;17.02;12.65;;;;;;;2.39;83.86;99287.52;1842548;76;21170;-58
2021/03/13 05:57:52;;;;;;;19.73;13.17;;;;;;;2.41;83.80;99289.69;1835176;76;21250;-62
2021/03/13 06:00:21;;;;;;;18.10;11.97;;;;;;;2.46;83.81;99289.15;1840290;77;21541;-62
2021/03/13 06:02:50;;;;;;;15.43;11.47;;;;;;;2.51;83.74;99302.73;1804041;78;21118;-61
2021/03/13 06:05:18;;;;;;;17.17;12.13;;;;;;;2.55;83.60;99311.03;1787181;78;21102;-60
2021/03/13 06:07:45;;;;;;;15.93;11.20;;;;;;;2.59;83.49;99310.52;1804044;78;20974;-61
2021/03/13 06:10:14;;;;;;;16.53;10.80;;;;;;;2.61;83.45;99308.27;1808160;78;22038;-62
2021/03/13 06:12:42;;;;;;;13.70;9.33;;;;;;;2.68;83.42;99314.30;1784428;78;21401;-60
2021/03/13 06:15:10;;;;;;;13.23;9.67;;;;;;;2.74;83.29;99312.82;1775128;79;22168;-63
2021/03/13 06:17:59;;;;;;;12.80;10.00;;;;;;;2.78;83.22;99315.84;1780242;78;21513;-64
2021/03/13 06:20:38;;;;;;;14.00;10.40;;;;;;;2.83;83.16;99322.36;1803734;78;21083;-63
2021/03/13 06:23:15;;;;;;;12.80;9.67;;;;;;;2.87;83.06;99327.58;1783479;79;22252;-63
2021/03/13 06:25:44;;;;;;;14.53;10.93;;;;;;;2.93;82.92;99331.86;1799510;78;21021;-61
2021/03/13 06:28:20;;;;;;;14.43;10.27;;;;;;;2.99;82.75;99335.24;1785378;78;21012;-63
2021/03/13 06:30:49;;;;;;;10.93;8.17;;;;;;;3.09;82.64;99333.69;1809292;78;21115;-62
2021/03/13 06:33:30;;;;;;;13.03;8.33;;;;;;;3.19;82.49;99330.77;1803374;78;21498;-62
2021/03/13 06:36:00;;;;;;;10.33;8.87;;;;;;;3.26;82.33;99333.69;1801923;78;21114;-63
2021/03/13 06:38:29;;;;;;;11.70;8.30;;;;;;;3.33;82.17;99331.28;1799470;78;21177;-59
2021/03/13 06:41:13;;;;;;;12.93;8.73;;;;;;;3.42;82.09;99335.49;1782584;77;21179;-57
2021/03/13 06:43:41;;;;;;;14.00;9.10;;;;;;;3.53;82.03;99332.10;1775695;78;21120;-62
2021/03/13 06:46:16;;;;;;;12.77;9.63;;;;;;;3.64;81.82;99335.36;1774875;78;21208;-60
2021/03/13 06:48:49;;;;;;;13.67;10.23;;;;;;;3.71;81.56;99332.95;1806548;77;22041;-60
2021/03/13 06:51:24;;;;;;;9.35;7.97;;;;;;;3.78;81.32;99328.32;1812065;77;21482;-59
2021/03/13 06:54:15;;;;;;;9.60;8.15;;;;;;;3.87;81.04;99332.52;1803593;77;21123;-59
2021/03/13 06:56:54;;;;;;;11.10;8.83;;;;;;;3.94;80.76;99330.09;1806791;77;21182;-59
2021/03/13 06:59:30;;;;;;;10.77;8.50;;;;;;;4.06;80.67;99329.75;1804058;77;21444;-58
2021/03/13 07:02:05;;;;;;;9.30;7.87;;;;;;;4.23;80.41;99329.27;1799841;77;21237;-59
2021/03/13 07:04:42;;;;;;;12.00;8.23;;;;;;;4.46;80.08;99325.45;1803591;77;21633;-60
2021/03/13 07:07:28;;;;;;;10.77;8.33;;;;;;;4.64;79.69;99326.68;1803806;77;21150;-60
2021/03/13 07:09:57;;;;;;;9.60;8.60;;;;;;;4.81;79.10;99324.36;1765334;79;21151;-61
2021/03/13 07:12:40;;;;;;;11.27;9.10;;;;;;;4.92;78.64;99326.23;1754884;79;21214;-59
2021/03/13 07:15:25;;;;;;;12.53;8.43;;;;;;;5.02;78.22;99330.81;1745554;80;22369;-58
2021/03/13 07:17:54;;;;;;;20.17;12.57;;;;;;;5.05;77.58;99335.57;1753424;79;21620;-59
2021/03/13 07:20:25;;;;;;;20.97;12.47;;;;;;;5.03;77.33;99339.20;1757209;79;21222;-58
2021/03/13 07:22:56;;;;;;;16.77;10.77;;;;;;;5.08;77.17;99345.28;1754688;79;21205;-58
2021/03/13 07:25:25;;;;;;;11.03;8.73;;;;;;;5.11;76.81;99346.03;1753746;79;21641;-58
2021/03/13 07:27:56;;;;;;;18.83;11.90;;;;;;;5.11;76.56;99345.16;1768999;79;22733;-59
2021/03/13 07:30:25;;;;;;;34.87;20.37;;;;;;;5.11;76.37;99342.03;1749742;79;21190;-58
2021/03/13 07:33:02;;;;;;;23.10;14.63;;;;;;;5.14;76.19;99341.06;1740924;80;21651;-59
2021/03/13 07:35:35;;;;;;;13.17;10.13;;;;;;;5.15;75.95;99340.15;1755979;79;21174;-59
2021/03/13 07:38:05;;;;;;;15.97;11.33;;;;;;;5.11;75.67;99334.02;1754234;79;21194;-60
2021/03/13 07:40:33;;;;;;;32.97;18.77;;;;;;;5.11;75.45;99342.03;1758363;79;21440;-61
2021/03/13 07:43:01;;;;;;;15.33;12.27;;;;;;;5.13;75.42;99340.66;1742759;80;21211;-61
2021/03/13 07:45:28;;;;;;;27.97;16.30;;;;;;;5.18;75.25;99344.94;1753506;79;21179;-60
2021/03/13 07:47:57;;;;;;;22.03;14.80;;;;;;;5.22;75.03;99337.69;1755840;79;21214;-61
2021/03/13 07:50:26;;;;;;;19.83;14.07;;;;;;;5.18;74.86;99337.39;1755365;79;21206;-62
2021/03/13 07:52:55;;;;;;;26.77;17.40;;;;;;;5.17;74.75;99343.19;1776655;78;21539;-61
2021/03/13 07:55:24;;;;;;;20.53;14.07;;;;;;;5.18;74.54;99344.06;1786158;78;21246;-61
2021/03/13 07:57:51;;;;;;;18.47;14.37;;;;;;;5.18;74.48;99332.93;1785100;79;21178;-61
2021/03/13 08:00:41;;;;;;;27.53;19.57;;;;;;;5.20;74.48;99327.05;1782186;79;21747;-59
2021/03/13 08:03:51;;;;;;;31.73;19.87;;;;;;;5.26;74.37;99334.88;1768028;79;21231;-59
2021/03/13 08:06:18;;;;;;;19.03;14.20;;;;;;;5.26;74.08;99332.21;1705810;82;21692;-60
2021/03/13 08:08:47;;;;;;;31.67;19.60;;;;;;;5.26;74.04;99325.54;1694598;82;21165;-61
2021/03/13 08:11:24;;;;;;;17.47;13.90;;;;;;;5.26;74.10;99323.33;1732131;80;21125;-62
2021/03/13 08:13:56;;;;;;;27.87;18.13;;;;;;;5.28;74.21;99329.00;1735441;81;21181;-62
2021/03/13 08:16:36;;;;;;;27.67;18.90;;;;;;;5.32;74.13;99325.78;1734996;81;21209;-64
2021/03/13 08:19:30;;;;;;;24.37;17.73;;;;;;;5.37;74.17;99333.62;1709942;82;22115;-62
2021/03/13 08:22:21;;;;;;;23.57;19.37;;;;;;;5.46;74.03;99335.98;1735667;80;21613;-60
2021/03/13 08:24:50;;;;;;;27.57;18.30;;;;;;;5.49;73.78;99330.55;1738586;80;21688;-61
2021/03/13 08:27:41;;;;;;;20.97;15.80;;;;;;;5.52;73.74;99331.79;1709602;82;21228;-61
2021/03/13 08:30:21;;;;;;;18.53;14.93;;;;;;;5.58;73.62;99332.44;1734891;80;21230;-61
2021/03/13 08:33:06;;;;;;;27.03;17.67;;;;;;;5.66;73.42;99333.50;1704765;82;22008;-60
2021/03/13 08:35:41;;;;;;;22.87;16.90;;;;;;;5.71;73.08;99339.09;1709133;82;21316;-60
2021/03/13 08:38:08;;;;;;;19.13;15.70;;;;;;;5.73;72.79;99349.72;1707892;82;21600;-63
2021/03/13 08:40:48;;;;;;;23.00;17.67;;;;;;;5.75;72.46;99337.66;1737067;80;21209;-60
2021/03/13 08:43:36;;;;;;;19.20;14.97;;;;;;;5.71;72.29;99342.22;1757090;79;21101;-60
2021/03/13 08:46:04;;;;;;;25.37;17.37;;;;;;;5.67;72.11;99340.13;1756688;81;21655;-60
2021/03/13 08:48:56;;;;;;;34.63;20.97;;;;;;;5.64;72.08;99344.70;1754038;80;21197;-62
2021/03/13 08:51:23;;;;;;;28.27;18.80;;;;;;;5.63;71.91;99346.95;1757593;81;21128;-59
2021/03/13 08:53:52;;;;;;;23.23;17.07;;;;;;;5.57;71.74;99353.39;1758435;79;21118;-60
2021/03/13 08:56:43;;;;;;;19.27;15.20;;;;;;;5.52;71.82;99357.15;1756028;79;21110;-63
2021/03/13 08:59:18;;;;;;;27.43;18.90;;;;;;;5.45;71.72;99351.58;1756305;79;21216;-58
2021/03/13 09:02:11;;;;;;;22.33;15.93;;;;;;;5.38;71.83;99356.72;1755718;81;21141;-58
2021/03/13 09:04:42;;;;;;;23.13;16.70;;;;;;;5.32;72.03;99359.14;1757482;80;21139;-58
2021/03/13 09:07:10;;;;;;;32.37;19.77;;;;;;;5.30;72.14;99359.65;1721706;81;21546;-58
2021/03/13 09:09:41;;;;;;;19.13;13.47;;;;;;;5.29;72.06;99350.77;1722831;81;21098;-59
2021/03/13 09:12:12;;;;;;;25.03;15.50;;;;;;;5.29;71.77;99349.44;1723200;81;21147;-58
2021/03/13 09:14:46;;;;;;;18.37;14.57;;;;;;;5.23;71.75;99356.31;1723456;81;21303;-59
2021/03/13 09:17:14;;;;;;;23.50;15.65;;;;;;;5.21;71.91;99353.28;1696081;82;21226;-58
2021/03/13 09:19:43;;;;;;;28.17;18.73;;;;;;;5.25;72.02;99350.48;1698117;82;21204;-58
2021/03/13 09:22:13;;;;;;;22.33;15.73;;;;;;;5.31;72.04;99349.39;1698828;82;21126;-58
2021/03/13 09:24:40;;;;;;;21.37;15.27;;;;;;;5.33;71.90;99356.89;1718101;81;21228;-59
2021/03/13 09:27:08;;;;;;;32.10;20.70;;;;;;;5.38;71.84;99352.72;1721125;81;21561;-59
2021/03/13 09:29:43;;;;;;;31.33;20.77;;;;;;;5.41;71.79;99353.50;1721964;81;21198;-60
2021/03/13 09:32:13;;;;;;;26.30;18.67;;;;;;;5.47;71.80;99356.41;1697075;82;21127;-60
2021/03/13 09:34:44;;;;;;;25.30;16.17;;;;;;;5.53;71.63;99350.89;1702841;82;21453;-61
2021/03/13 09:37:16;;;;;;;19.87;13.47;;;;;;;5.56;71.48;99348.09;1689691;83;22015;-59
2021/03/13 09:39:48;;;;;;;21.37;15.97;;;;;;;5.59;71.39;99348.00;1696354;82;21215;-60
2021/03/13 09:42:20;;;;;;;19.93;14.57;;;;;;;5.62;71.26;99351.42;1720942;81;21869;-60
2021/03/13 09:45:00;;;;;;;20.23;15.23;;;;;;;5.63;71.09;99348.28;1699403;82;21464;-59
2021/03/13 09:47:54;;;;;;;35.47;20.50;;;;;;;5.63;71.07;99346.95;1716580;81;21181;-62
2021/03/13 09:50:28;;;;;;;23.12;16.90;;;;;;;5.62;71.02;99347.88;1720320;81;21560;-59
2021/03/13 09:52:55;;;;;;;31.40;20.00;;;;;;;5.62;71.09;99348.75;1717642;81;21181;-59
2021/03/13 09:55:24;;;;;;;23.70;15.70;;;;;;;5.68;71.12;99348.56;1717071;81;21714;-61
2021/03/13 09:57:53;;;;;;;20.63;15.83;;;;;;;5.70;71.05;99344.02;1722390;81;21199;-60
2021/03/13 10:00:27;;;;;;;15.73;13.27;;;;;;;5.77;70.68;99350.50;1686740;83;21200;-59
2021/03/13 10:02:55;;;;;;;20.13;13.57;;;;;;;5.76;70.59;99352.30;1694689;82;21376;-59
2021/03/13 10:05:28;;;;;;;18.60;14.10;;;;;;;5.79;70.40;99352.63;1690869;82;21251;-60
2021/03/13 10:07:55;;;;;;;28.23;20.60;;;;;;;5.77;70.42;99351.37;1682251;83;21261;-60
2021/03/13 10:10:25;;;;;;;22.37;16.43;;;;;;;5.79;70.38;99349.95;1684350;84;21191;-60
2021/03/13 10:12:59;;;;;;;24.70;17.63;;;;;;;5.78;70.36;99351.78;1681502;83;21212;-59
2021/03/13 10:15:32;;;;;;;23.77;18.17;;;;;;;5.74;70.15;99352.80;1688197;83;21264;-59
2021/03/13 10:18:04;;;;;;;21.90;15.23;;;;;;;5.67;70.21;99348.61;1707354;83;21421;-59
2021/03/13 10:20:37;;;;;;;18.23;15.10;;;;;;;5.62;70.31;99355.88;1690170;83;21676;-61
2021/03/13 10:23:17;;;;;;;21.00;15.97;;;;;;;5.58;70.37;99348.92;1690391;83;21128;-59
2021/03/13 10:25:56;;;;;;;18.17;13.70;;;;;;;5.60;70.40;99348.41;1688204;84;21196;-60
2021/03/13 10:28:30;;;;;;;23.30;17.00;;;;;;;5.62;70.44;99347.41;1683465;83;21212;-59
2021/03/13 10:31:19;;;;;;;20.27;15.60;;;;;;;5.62;70.32;99342.07;1687568;84;21196;-58
2021/03/13 10:33:48;;;;;;;24.67;15.37;;;;;;;5.63;70.48;99342.95;1688385;84;21084;-58
2021/03/13 10:36:17;;;;;;;21.10;17.00;;;;;;;5.67;70.48;99339.26;1690281;84;21985;-58
2021/03/13 10:38:49;;;;;;;25.17;16.57;;;;;;;5.70;70.45;99333.80;1688082;84;22297;-58
2021/03/13 10:41:22;;;;;;;20.87;17.10;;;;;;;5.74;70.39;99331.44;1688769;84;21907;-58
2021/03/13 10:43:52;;;;;;;24.33;17.40;;;;;;;5.78;70.31;99326.88;1690407;84;21172;-58
2021/03/13 10:46:22;;;;;;;23.20;16.77;;;;;;;5.81;70.26;99328.95;1692800;83;21167;-56
2021/03/13 10:49:00;;;;;;;19.23;15.90;;;;;;;5.86;70.08;99328.34;1682310;84;21193;-59
2021/03/13 10:51:41;;;;;;;21.73;15.60;;;;;;;5.91;70.01;99324.19;1686031;83;21273;-58
2021/03/13 10:54:22;;;;;;;20.97;16.40;;;;;;;5.96;69.97;99326.22;1694015;84;21674;-58
2021/03/13 10:56:49;;;;;;;21.83;16.27;;;;;;;6.00;69.99;99326.53;1690158;84;21183;-56
2021/03/13 10:59:17;;;;;;;19.90;16.40;;;;;;;6.06;69.93;99316.48;1689324;84;21187;-57
2021/03/13 11:01:45;;;;;;;21.70;17.73;;;;;;;6.11;69.72;99322.14;1688155;83;21203;-56
2021/03/13 11:04:14;;;;;;;22.73;19.33;;;;;;;6.16;69.69;99320.16;1690777;83;21179;-57
2021/03/13 11:06:41;;;;;;;22.77;17.63;;;;;;;6.20;69.52;99317.33;1683980;83;22760;-55
2021/03/13 11:09:11;;;;;;;22.60;17.40;;;;;;;6.24;69.41;99314.05;1663996;84;21471;-55
2021/03/13 11:11:39;;;;;;;22.33;18.57;;;;;;;6.27;69.30;99313.48;1705551;82;21563;-57
2021/03/13 11:14:07;;;;;;;22.30;17.83;;;;;;;6.32;69.28;99313.30;1687853;83;21222;-55
2021/03/13 11:16:35;;;;;;;23.60;15.37;;;;;;;6.37;69.11;99306.87;1688078;83;21191;-55
2021/03/13 11:19:04;;;;;;;21.00;14.73;;;;;;;6.43;68.74;99309.77;1684580;84;21387;-58
2021/03/13 11:21:31;;;;;;;20.13;15.03;;;;;;;6.46;68.77;99305.64;1686596;83;21529;-55
2021/03/13 11:23:58;;;;;;;22.43;16.03;;;;;;;6.52;68.66;99309.41;1683866;83;21188;-57
2021/03/13 11:26:26;;;;;;;21.70;17.53;;;;;;;6.59;68.44;99307.36;1684141;83;21987;-57
2021/03/13 11:28:53;;;;;;;22.60;16.50;;;;;;;6.66;68.24;99306.19;1685534;83;21191;-57
2021/03/13 11:31:20;;;;;;;24.10;17.07;;;;;;;6.70;68.12;99299.80;1685514;83;21662;-57
2021/03/13 11:33:49;;;;;;;25.37;18.70;;;;;;;6.70;67.82;99302.01;1684514;83;21277;-56
2021/03/13 11:36:16;;;;;;;23.07;17.73;;;;;;;6.69;67.79;99296.71;1688072;83;21405;-56
2021/03/13 11:38:43;;;;;;;21.83;17.53;;;;;;;6.68;67.72;99298.52;1687018;84;21117;-56
2021/03/13 11:41:11;;;;;;;21.77;16.77;;;;;;;6.69;67.74;99294.91;1687869;83;21503;-58
2021/03/13 11:43:41;;;;;;;18.83;16.07;;;;;;;6.73;67.69;99292.97;1683364;83;21568;-56
2021/03/13 11:46:12;;;;;;;21.10;16.33;;;;;;;6.76;67.51;99283.49;1687276;83;21443;-57
2021/03/13 11:48:43;;;;;;;20.80;14.43;;;;;;;6.80;67.44;99280.62;1686429;83;21125;-56